Time,TemperatureF,DewpointF,PressureIn,WindDirection,WindDirectionDegrees,WindSpeedMPH,WindSpeedGustMPH,Humidity,HourlyPrecipIn,Conditions,Clouds,dailyrainin,SoftwareType,DateUTC
2013-03-23 00:00:00,27.7,22.6,30.04,WNW,289,0.0,2.0,81,0.00,,,0.00,Wunderground v.1.15,2013-03-23 04:00:00,
2013-03-23 00:05:00,27.8,23.0,30.04,WNW,289,0.0,2.0,82,0.00,,,0.00,Wunderground v.1.15,2013-03-23 04:05:00,
2013-03-23 00:10:00,27.7,22.9,30.04,WNW,289,0.0,2.0,82,0.00,,,0.00,Wunderground v.1.15,2013-03-23 04:10:00,
2013-03-23 00:15:00,27.7,22.6,30.04,WNW,290,0.0,2.0,81,0.00,,,0.00,Wunderground v.1.15,2013-03-23 04:15:00,
2013-03-23 00:25:00,27.7,22.9,30.04,WNW,289,0.0,2.0,82,0.00,,,0.00,Wunderground v.1.15,2013-03-23 04:25:00,
2013-03-23 00:35:00,28.0,23.5,30.04,WNW,289,0.0,2.0,83,0.00,,,0.00,Wunderground v.1.15,2013-03-23 04:35:00,
2013-03-23 00:40:00,28.1,23.6,30.03,WNW,290,0.0,2.0,83,0.00,,,0.00,Wunderground v.1.15,2013-03-23 04:40:00,
2013-03-23 00:50:00,28.6,23.8,30.03,WNW,290,0.0,2.0,82,0.00,,,0.00,Wunderground v.1.15,2013-03-23 04:50:00,
2013-03-23 01:00:00,28.7,24.2,30.04,WNW,290,0.0,2.0,83,0.00,,,0.00,Wunderground v.1.15,2013-03-23 05:00:00,
2013-03-23 01:10:00,28.9,24.4,30.03,WNW,290,0.0,2.0,83,0.00,,,0.00,Wunderground v.1.15,2013-03-23 05:10:00,
2013-03-23 01:20:00,28.7,23.9,30.03,WNW,290,0.0,2.0,82,0.00,,,0.00,Wunderground v.1.15,2013-03-23 05:20:00,
2013-03-23 01:30:00,28.1,23.0,30.03,WNW,289,0.0,2.0,81,0.00,,,0.00,Wunderground v.1.15,2013-03-23 05:30:00,
2013-03-23 01:40:00,27.7,22.6,30.04,WNW,289,0.0,2.0,81,0.00,,,0.00,Wunderground v.1.15,2013-03-23 05:40:00,
2013-03-23 01:50:00,27.4,22.0,30.03,WNW,290,0.0,2.0,80,0.00,,,0.00,Wunderground v.1.15,2013-03-23 05:50:00,
2013-03-23 02:00:00,27.0,22.2,30.03,WNW,290,0.0,2.0,82,0.00,,,0.00,Wunderground v.1.15,2013-03-23 06:00:00,
2013-03-23 02:05:00,27.0,22.2,30.04,WNW,290,0.0,2.0,82,0.00,,,0.00,Wunderground v.1.15,2013-03-23 06:05:00,
2013-03-23 02:15:00,26.7,22.2,30.04,WNW,290,0.0,2.0,83,0.00,,,0.00,Wunderground v.1.15,2013-03-23 06:15:00,
2013-03-23 02:25:00,27.0,22.8,30.03,WNW,290,0.0,2.0,84,0.00,,,0.00,Wunderground v.1.15,2013-03-23 06:25:00,
2013-03-23 02:30:00,27.3,23.4,30.03,WNW,290,0.0,2.0,85,0.00,,,0.00,Wunderground v.1.15,2013-03-23 06:30:00,
2013-03-23 02:35:00,27.5,23.3,30.03,WNW,289,0.0,2.0,84,0.00,,,0.00,Wunderground v.1.15,2013-03-23 06:35:00,
2013-03-23 02:40:00,27.6,23.7,30.03,WNW,290,0.0,2.0,85,0.00,,,0.00,Wunderground v.1.15,2013-03-23 06:40:00,
2013-03-23 02:50:00,28.2,24.8,30.04,NNW,340,0.0,2.0,87,0.00,,,0.00,Wunderground v.1.15,2013-03-23 06:50:00,
2013-03-23 03:00:00,28.6,24.9,30.03,NNW,340,0.0,2.0,86,0.00,,,0.00,Wunderground v.1.15,2013-03-23 07:00:00,
2013-03-23 03:10:00,28.9,25.2,30.03,NNW,340,0.0,2.0,86,0.00,,,0.00,Wunderground v.1.15,2013-03-23 07:10:00,
2013-03-23 03:20:00,29.0,25.3,30.03,NNW,340,0.0,2.0,86,0.00,,,0.00,Wunderground v.1.15,2013-03-23 07:20:00,
2013-03-23 03:30:00,29.3,25.6,30.03,NNW,340,0.0,2.0,86,0.00,,,0.00,Wunderground v.1.15,2013-03-23 07:30:00,
2013-03-23 03:40:00,29.6,25.6,30.02,NNW,340,0.0,2.0,85,0.00,,,0.00,Wunderground v.1.15,2013-03-23 07:40:00,
2013-03-23 03:50:00,29.7,25.7,30.02,NNW,340,0.0,2.0,85,0.00,,,0.00,Wunderground v.1.15,2013-03-23 07:50:00,
2013-03-23 04:00:00,29.8,25.8,30.02,NNW,340,0.0,2.0,85,0.00,,,0.00,Wunderground v.1.15,2013-03-23 08:00:00,
2013-03-23 04:05:00,29.8,25.8,30.02,NNW,340,0.0,2.0,85,0.00,,,0.00,Wunderground v.1.15,2013-03-23 08:05:00,
2013-03-23 04:15:00,30.1,26.1,30.01,NNW,340,0.0,2.0,85,0.00,,,0.00,Wunderground v.1.15,2013-03-23 08:15:00,
2013-03-23 04:25:00,30.1,26.1,30.00,NNW,340,0.0,2.0,85,0.00,,,0.00,Wunderground v.1.15,2013-03-23 08:25:00,
2013-03-23 04:30:00,30.1,26.1,30.00,NNW,340,0.0,2.0,85,0.00,,,0.00,Wunderground v.1.15,2013-03-23 08:30:00,
2013-03-23 04:35:00,30.2,26.2,30.01,NNW,340,0.0,2.0,85,0.00,,,0.00,Wunderground v.1.15,2013-03-23 08:35:00,
2013-03-23 04:40:00,30.3,26.6,30.01,NNW,338,0.0,2.0,86,0.00,,,0.00,Wunderground v.1.15,2013-03-23 08:40:00,
2013-03-23 04:50:00,30.4,26.4,30.01,NNW,339,0.0,2.0,85,0.00,,,0.00,Wunderground v.1.15,2013-03-23 08:50:00,
2013-03-23 05:00:00,30.5,26.5,30.01,NNW,339,0.0,2.0,85,0.00,,,0.00,Wunderground v.1.15,2013-03-23 09:00:00,
2013-03-23 05:10:00,30.6,26.6,30.00,NNW,339,0.0,2.0,85,0.00,,,0.00,Wunderground v.1.15,2013-03-23 09:10:00,
2013-03-23 05:20:00,30.7,27.0,30.01,NNW,339,0.0,2.0,86,0.00,,,0.00,Wunderground v.1.15,2013-03-23 09:20:00,
2013-03-23 05:30:00,30.8,26.8,30.00,NNW,339,0.0,2.0,85,0.00,,,0.00,Wunderground v.1.15,2013-03-23 09:30:00,
2013-03-23 05:35:00,30.9,27.2,30.00,NNW,339,0.0,2.0,86,0.00,,,0.00,Wunderground v.1.15,2013-03-23 09:35:00,
2013-03-23 05:45:00,30.9,26.9,30.01,NNW,339,0.0,2.0,85,0.00,,,0.00,Wunderground v.1.15,2013-03-23 09:45:00,
2013-03-23 05:55:00,30.9,26.9,30.01,NNW,339,0.0,2.0,85,0.00,,,0.00,Wunderground v.1.15,2013-03-23 09:55:00,
2013-03-23 06:05:00,31.0,27.3,30.01,NNW,339,0.0,2.0,86,0.00,,,0.00,Wunderground v.1.15,2013-03-23 10:05:00,
2013-03-23 06:15:00,31.2,27.5,30.01,NNW,339,0.0,2.0,86,0.00,,,0.00,Wunderground v.1.15,2013-03-23 10:15:00,
2013-03-23 06:25:00,31.2,27.5,30.02,NNW,338,0.0,2.0,86,0.00,,,0.00,Wunderground v.1.15,2013-03-23 10:25:00,
2013-03-23 06:30:00,31.2,27.2,30.02,NNW,339,0.0,2.0,85,0.00,,,0.00,Wunderground v.1.15,2013-03-23 10:30:00,
2013-03-23 06:40:00,31.4,27.4,30.02,NNW,338,0.0,2.0,85,0.00,,,0.00,Wunderground v.1.15,2013-03-23 10:40:00,
2013-03-23 06:50:00,31.6,27.9,30.02,NNW,338,0.0,2.0,86,0.00,,,0.00,Wunderground v.1.15,2013-03-23 10:50:00,
2013-03-23 06:55:00,31.6,27.9,30.02,NNW,339,0.0,2.0,86,0.00,,,0.00,Wunderground v.1.15,2013-03-23 10:55:00,
2013-03-23 07:05:00,31.6,27.6,30.03,NNW,339,0.0,2.0,85,0.00,,,0.00,Wunderground v.1.15,2013-03-23 11:05:00,
2013-03-23 07:15:00,31.7,27.7,30.03,NNW,339,0.0,2.0,85,0.00,,,0.00,Wunderground v.1.15,2013-03-23 11:15:00,
2013-03-23 07:25:00,31.8,27.8,30.03,NNW,338,0.0,2.0,85,0.00,,,0.00,Wunderground v.1.15,2013-03-23 11:25:00,
2013-03-23 07:35:00,31.9,27.9,30.04,NNW,338,0.0,2.0,85,0.00,,,0.00,Wunderground v.1.15,2013-03-23 11:35:00,
2013-03-23 07:45:00,31.9,28.2,30.04,NNW,338,0.0,2.0,86,0.00,,,0.00,Wunderground v.1.15,2013-03-23 11:45:00,
2013-03-23 07:50:00,32.0,28.0,30.04,NNW,339,0.0,2.0,85,0.00,,,0.00,Wunderground v.1.15,2013-03-23 11:50:00,
2013-03-23 08:00:00,32.1,28.4,30.04,NNW,338,0.0,2.0,86,0.00,,,0.00,Wunderground v.1.15,2013-03-23 12:00:00,
2013-03-23 08:10:00,32.2,28.2,30.04,NNW,338,0.0,2.0,85,0.00,,,0.00,Wunderground v.1.15,2013-03-23 12:10:00,
2013-03-23 08:15:00,32.3,28.3,30.05,NNW,339,0.0,2.0,85,0.00,,,0.00,Wunderground v.1.15,2013-03-23 12:15:00,
2013-03-23 08:20:00,32.4,28.4,30.05,NNW,338,0.0,2.0,85,0.00,,,0.00,Wunderground v.1.15,2013-03-23 12:20:00,
2013-03-23 08:30:00,32.7,29.0,30.06,WNW,291,0.0,2.0,86,0.00,,,0.00,Wunderground v.1.15,2013-03-23 12:30:00,
2013-03-23 08:40:00,33.0,29.0,30.06,WNW,290,0.0,2.0,85,0.00,,,0.00,Wunderground v.1.15,2013-03-23 12:40:00,
2013-03-23 08:50:00,33.3,29.3,30.06,WNW,291,0.0,2.0,85,0.00,,,0.00,Wunderground v.1.15,2013-03-23 12:50:00,
2013-03-23 08:55:00,33.5,29.5,30.06,WNW,291,0.0,2.0,85,0.00,,,0.00,Wunderground v.1.15,2013-03-23 12:55:00,
2013-03-23 09:05:00,33.9,29.9,30.06,WNW,291,0.0,2.0,85,0.00,,,0.00,Wunderground v.1.15,2013-03-23 13:05:00,
2013-03-23 09:15:00,34.6,30.0,30.06,WNW,291,0.0,2.0,83,0.00,,,0.00,Wunderground v.1.15,2013-03-23 13:15:00,
2013-03-23 09:25:00,35.6,30.3,30.06,WNW,290,0.0,2.0,81,0.00,,,0.00,Wunderground v.1.15,2013-03-23 13:25:00,
2013-03-23 09:35:00,36.6,30.4,30.07,WNW,294,0.0,2.0,78,0.00,,,0.00,Wunderground v.1.15,2013-03-23 13:35:00,
2013-03-23 09:45:00,37.7,28.8,30.07,WNW,292,0.0,2.0,70,0.00,,,0.00,Wunderground v.1.15,2013-03-23 13:45:00,
2013-03-23 09:50:00,38.5,29.2,30.06,WNW,293,0.0,2.0,69,0.00,,,0.00,Wunderground v.1.15,2013-03-23 13:50:00,
2013-03-23 10:00:00,39.9,27.1,30.06,East,79,0.0,2.0,60,0.00,,,0.00,Wunderground v.1.15,2013-03-23 14:00:00,
2013-03-23 10:10:00,40.8,27.2,30.06,SSE,149,0.0,2.0,58,0.00,,,0.00,Wunderground v.1.15,2013-03-23 14:10:00,
2013-03-23 10:20:00,41.4,26.4,30.06,NE,41,0.0,2.0,55,0.00,,,0.00,Wunderground v.1.15,2013-03-23 14:20:00,
2013-03-23 10:25:00,41.5,26.5,30.06,NNE,20,0.0,2.0,55,0.00,,,0.00,Wunderground v.1.15,2013-03-23 14:25:00,
2013-03-23 10:35:00,42.2,27.6,30.06,ESE,115,0.0,2.0,56,0.00,,,0.00,Wunderground v.1.15,2013-03-23 14:35:00,
2013-03-23 10:45:00,42.9,25.5,30.06,ESE,120,0.0,2.0,50,0.00,,,0.00,Wunderground v.1.15,2013-03-23 14:45:00,
2013-03-23 10:55:00,43.0,24.1,30.05,ENE,66,1.0,2.0,47,0.00,,,0.00,Wunderground v.1.15,2013-03-23 14:55:00,
2013-03-23 11:05:00,42.9,24.0,30.05,East,91,1.0,2.0,47,0.00,,,0.00,Wunderground v.1.15,2013-03-23 15:05:00,
2013-03-23 11:15:00,43.2,23.8,30.05,NNE,31,1.0,2.0,46,0.00,,,0.00,Wunderground v.1.15,2013-03-23 15:15:00,
2013-03-23 11:25:00,43.8,25.4,30.05,SE,146,0.0,2.0,48,0.00,,,0.00,Wunderground v.1.15,2013-03-23 15:25:00,
2013-03-23 11:35:00,45.0,26.0,30.05,East,88,1.0,3.0,47,0.00,,,0.00,Wunderground v.1.15,2013-03-23 15:35:00,
2013-03-23 11:45:00,46.3,25.0,30.05,SSE,149,2.0,2.0,43,0.00,,,0.00,Wunderground v.1.15,2013-03-23 15:45:00,
2013-03-23 11:50:00,46.7,25.4,30.04,ESE,115,2.0,2.0,43,0.00,,,0.00,Wunderground v.1.15,2013-03-23 15:50:00,
2013-03-23 12:00:00,48.2,23.7,30.04,West,264,1.0,2.0,38,0.00,,,0.00,Wunderground v.1.15,2013-03-23 16:00:00,
2013-03-23 12:05:00,48.2,23.7,30.04,SSE,163,1.0,2.0,38,0.00,,,0.00,Wunderground v.1.15,2013-03-23 16:05:00,
2013-03-23 12:15:00,48.8,24.9,30.03,South,180,2.0,2.0,39,0.00,,,0.00,Wunderground v.1.15,2013-03-23 16:15:00,
2013-03-23 12:20:00,49.4,25.4,30.03,NNW,347,1.0,2.0,39,0.00,,,0.00,Wunderground v.1.15,2013-03-23 16:20:00,
2013-03-23 12:30:00,49.9,25.9,30.03,NE,40,2.0,3.0,39,0.00,,,0.00,Wunderground v.1.15,2013-03-23 16:30:00,
2013-03-23 12:35:00,49.9,24.6,30.03,ENE,65,2.0,5.0,37,0.00,,,0.00,Wunderground v.1.15,2013-03-23 16:35:00,
2013-03-23 12:45:00,50.1,24.8,30.03,SE,132,2.0,3.0,37,0.00,,,0.00,Wunderground v.1.15,2013-03-23 16:45:00,
2013-03-23 12:55:00,50.8,27.3,30.03,ENE,63,2.0,3.0,40,0.00,,,0.00,Wunderground v.1.15,2013-03-23 16:55:00,
2013-03-23 13:00:00,50.7,26.6,30.03,ESE,122,1.0,2.0,39,0.00,,,0.00,Wunderground v.1.15,2013-03-23 17:00:00,
2013-03-23 13:05:00,51.3,27.2,30.03,ENE,63,1.0,3.0,39,0.00,,,0.00,Wunderground v.1.15,2013-03-23 17:05:00,
2013-03-23 13:15:00,52.3,27.4,30.03,East,84,2.0,4.0,38,0.00,,,0.00,Wunderground v.1.15,2013-03-23 17:15:00,
2013-03-23 13:25:00,52.3,25.4,30.02,SSW,194,2.0,3.0,35,0.00,,,0.00,Wunderground v.1.15,2013-03-23 17:25:00,
2013-03-23 13:35:00,52.5,28.2,30.02,East,88,2.0,4.0,39,0.00,,,0.00,Wunderground v.1.15,2013-03-23 17:35:00,
2013-03-23 13:45:00,52.1,25.3,30.02,WSW,254,2.0,6.0,35,0.00,,,0.00,Wunderground v.1.15,2013-03-23 17:45:00,
2013-03-23 13:50:00,52.7,24.4,30.02,ENE,72,1.0,2.0,33,0.00,,,0.00,Wunderground v.1.15,2013-03-23 17:50:00,
2013-03-23 14:00:00,52.6,25.0,30.01,WNW,283,2.0,2.0,34,0.00,,,0.00,Wunderground v.1.15,2013-03-23 18:00:00,
2013-03-23 14:05:00,53.2,26.2,30.00,South,174,2.0,2.0,35,0.00,,,0.00,Wunderground v.1.15,2013-03-23 18:05:00,
2013-03-23 14:10:00,53.7,26.7,30.00,ENE,72,1.0,1.0,35,0.00,,,0.00,Wunderground v.1.15,2013-03-23 18:10:00,
2013-03-23 14:20:00,52.6,27.0,30.01,NE,56,3.0,4.0,37,0.00,,,0.00,Wunderground v.1.15,2013-03-23 18:20:00,
2013-03-23 14:30:00,52.7,28.4,30.00,ENE,65,2.0,6.0,39,0.00,,,0.00,Wunderground v.1.15,2013-03-23 18:30:00,
2013-03-23 14:40:00,52.9,24.5,30.00,ESE,113,3.0,3.0,33,0.00,,,0.00,Wunderground v.1.15,2013-03-23 18:40:00,
2013-03-23 14:45:00,53.2,25.5,30.00,NE,44,2.0,3.0,34,0.00,,,0.00,Wunderground v.1.15,2013-03-23 18:45:00,
2013-03-23 14:50:00,53.6,25.2,30.00,NNE,18,2.0,2.0,33,0.00,,,0.00,Wunderground v.1.15,2013-03-23 18:50:00,
2013-03-23 15:00:00,54.1,24.1,30.00,West,271,2.0,2.0,31,0.00,,,0.00,Wunderground v.1.15,2013-03-23 19:00:00,
2013-03-23 15:10:00,54.1,24.9,30.00,NNE,31,1.0,1.0,32,0.00,,,0.00,Wunderground v.1.15,2013-03-23 19:10:00,
2013-03-23 15:15:00,53.9,28.2,29.99,SSE,148,1.0,4.0,37,0.00,,,0.00,Wunderground v.1.15,2013-03-23 19:15:00,
2013-03-23 15:25:00,54.7,24.6,29.98,SE,141,1.0,2.0,31,0.00,,,0.00,Wunderground v.1.15,2013-03-23 19:25:00,
2013-03-23 15:35:00,54.8,25.5,29.97,NE,56,3.0,4.0,32,0.00,,,0.00,Wunderground v.1.15,2013-03-23 19:35:00,
2013-03-23 15:45:00,53.6,25.2,29.97,NNW,342,4.0,4.0,33,0.00,,,0.00,Wunderground v.1.15,2013-03-23 19:45:00,
2013-03-23 15:55:00,53.6,24.4,29.97,SE,138,2.0,3.0,32,0.00,,,0.00,Wunderground v.1.15,2013-03-23 19:55:00,
2013-03-23 16:05:00,54.2,26.4,29.96,East,101,2.0,3.0,34,0.00,,,0.00,Wunderground v.1.15,2013-03-23 20:05:00,
2013-03-23 16:10:00,54.8,29.7,29.97,SE,132,2.0,2.0,38,0.00,,,0.00,Wunderground v.1.15,2013-03-23 20:10:00,
2013-03-23 16:20:00,54.9,24.8,29.96,NNW,335,2.0,2.0,31,0.00,,,0.00,Wunderground v.1.15,2013-03-23 20:20:00,
2013-03-23 16:30:00,54.1,27.7,29.96,ENE,66,4.0,4.0,36,0.00,,,0.00,Wunderground v.1.15,2013-03-23 20:30:00,
2013-03-23 16:40:00,53.7,24.5,29.95,NE,46,4.0,7.0,32,0.00,,,0.00,Wunderground v.1.15,2013-03-23 20:40:00,
2013-03-23 16:50:00,53.9,23.1,29.95,NE,53,2.0,3.0,30,0.00,,,0.00,Wunderground v.1.15,2013-03-23 20:50:00,
2013-03-23 16:55:00,54.0,24.8,29.95,ENE,69,2.0,3.0,32,0.00,,,0.00,Wunderground v.1.15,2013-03-23 20:55:00,
2013-03-23 17:05:00,53.8,23.8,29.95,East,96,2.0,6.0,31,0.00,,,0.00,Wunderground v.1.15,2013-03-23 21:05:00,
2013-03-23 17:15:00,53.8,23.8,29.95,East,82,1.0,2.0,31,0.00,,,0.00,Wunderground v.1.15,2013-03-23 21:15:00,
2013-03-23 17:20:00,53.6,24.4,29.94,NE,56,3.0,4.0,32,0.00,,,0.00,Wunderground v.1.15,2013-03-23 21:20:00,
2013-03-23 17:30:00,53.3,22.6,29.94,ENE,75,3.0,3.0,30,0.00,,,0.00,Wunderground v.1.15,2013-03-23 21:30:00,
2013-03-23 17:35:00,52.9,23.0,29.94,NE,36,2.0,3.0,31,0.00,,,0.00,Wunderground v.1.15,2013-03-23 21:35:00,
2013-03-23 17:45:00,52.7,24.4,29.94,NE,37,1.0,2.0,33,0.00,,,0.00,Wunderground v.1.15,2013-03-23 21:45:00,
2013-03-23 17:55:00,53.1,24.7,29.94,ENE,58,0.0,2.0,33,0.00,,,0.00,Wunderground v.1.15,2013-03-23 21:55:00,
2013-03-23 18:05:00,52.6,25.0,29.93,NNE,32,2.0,5.0,34,0.00,,,0.00,Wunderground v.1.15,2013-03-23 22:05:00,
2013-03-23 18:15:00,52.0,24.5,29.94,NE,34,2.0,3.0,34,0.00,,,0.00,Wunderground v.1.15,2013-03-23 22:15:00,
2013-03-23 18:25:00,51.6,24.8,29.94,ESE,111,2.0,3.0,35,0.00,,,0.00,Wunderground v.1.15,2013-03-23 22:25:00,
2013-03-23 18:30:00,51.7,25.6,29.94,NE,43,1.0,1.0,36,0.00,,,0.00,Wunderground v.1.15,2013-03-23 22:30:00,
2013-03-23 18:40:00,51.4,25.3,29.94,NE,53,1.0,2.0,36,0.00,,,0.00,Wunderground v.1.15,2013-03-23 22:40:00,
2013-03-23 18:50:00,50.7,24.7,29.94,NE,51,2.0,2.0,36,0.00,,,0.00,Wunderground v.1.15,2013-03-23 22:50:00,
2013-03-23 18:55:00,50.3,25.0,29.94,NNE,25,1.0,2.0,37,0.00,,,0.00,Wunderground v.1.15,2013-03-23 22:55:00,
2013-03-23 19:05:00,49.7,27.5,29.94,WNW,291,1.0,4.0,42,0.00,,,0.00,Wunderground v.1.15,2013-03-23 23:05:00,
2013-03-23 19:15:00,49.0,25.7,29.94,NE,38,0.0,2.0,40,0.00,,,0.00,Wunderground v.1.15,2013-03-23 23:15:00,
2013-03-23 19:25:00,48.1,27.7,29.94,NW,309,0.0,2.0,45,0.00,,,0.00,Wunderground v.1.15,2013-03-23 23:25:00,
2013-03-23 19:35:00,47.2,27.5,29.93,WNW,301,1.0,2.0,46,0.00,,,0.00,Wunderground v.1.15,2013-03-23 23:35:00,
2013-03-23 19:45:00,46.3,27.2,29.93,NW,304,1.0,2.0,47,0.00,,,0.00,Wunderground v.1.15,2013-03-23 23:45:00,
2013-03-23 19:55:00,45.5,26.9,29.94,WNW,297,1.0,3.0,48,0.00,,,0.00,Wunderground v.1.15,2013-03-23 23:55:00,
2013-03-23 20:00:00,45.1,26.6,29.94,WNW,297,1.0,2.0,48,0.00,,,0.00,Wunderground v.1.15,2013-03-24 00:00:00,
2013-03-23 20:10:00,44.6,27.1,29.94,WNW,302,1.0,2.0,50,0.00,,,0.00,Wunderground v.1.15,2013-03-24 00:10:00,
2013-03-23 20:20:00,44.2,28.1,29.94,WNW,299,1.0,2.0,53,0.00,,,0.00,Wunderground v.1.15,2013-03-24 00:20:00,
2013-03-23 20:25:00,43.9,28.8,29.94,WNW,290,1.0,2.0,55,0.00,,,0.00,Wunderground v.1.15,2013-03-24 00:25:00,
2013-03-23 20:35:00,42.4,27.4,29.94,WNW,290,0.0,2.0,55,0.00,,,0.00,Wunderground v.1.15,2013-03-24 00:35:00,
2013-03-23 20:45:00,41.2,27.9,29.94,WNW,289,0.0,2.0,59,0.00,,,0.00,Wunderground v.1.15,2013-03-24 00:45:00,
2013-03-23 20:55:00,40.1,27.7,29.94,WNW,289,0.0,2.0,61,0.00,,,0.00,Wunderground v.1.15,2013-03-24 00:55:00,
2013-03-23 21:00:00,39.6,27.6,29.94,WNW,290,0.0,2.0,62,0.00,,,0.00,Wunderground v.1.15,2013-03-24 01:00:00,
2013-03-23 21:10:00,38.8,26.5,29.93,WNW,290,0.0,2.0,61,0.00,,,0.00,Wunderground v.1.15,2013-03-24 01:10:00,
2013-03-23 21:15:00,38.4,27.7,29.93,WNW,290,0.0,2.0,65,0.00,,,0.00,Wunderground v.1.15,2013-03-24 01:15:00,
2013-03-23 21:25:00,38.2,27.8,29.92,WNW,289,0.0,2.0,66,0.00,,,0.00,Wunderground v.1.15,2013-03-24 01:25:00,
2013-03-23 21:35:00,38.1,28.1,29.92,SSW,207,0.0,2.0,67,0.00,,,0.00,Wunderground v.1.15,2013-03-24 01:35:00,
2013-03-23 21:40:00,38.0,29.1,29.92,SSW,207,0.0,2.0,70,0.00,,,0.00,Wunderground v.1.15,2013-03-24 01:40:00,
2013-03-23 21:50:00,37.5,30.0,29.92,SSW,207,0.0,2.0,74,0.00,,,0.00,Wunderground v.1.15,2013-03-24 01:50:00,
2013-03-23 22:00:00,37.3,29.1,29.92,SSW,207,0.0,2.0,72,0.00,,,0.00,Wunderground v.1.15,2013-03-24 02:00:00,
2013-03-23 22:05:00,37.3,29.4,29.91,SSW,212,0.0,2.0,73,0.00,,,0.00,Wunderground v.1.15,2013-03-24 02:05:00,
2013-03-23 22:15:00,37.2,29.3,29.91,SSW,212,0.0,2.0,73,0.00,,,0.00,Wunderground v.1.15,2013-03-24 02:15:00,
2013-03-23 22:20:00,37.0,30.1,29.91,SSW,212,0.0,2.0,76,0.00,,,0.00,Wunderground v.1.15,2013-03-24 02:20:00,
2013-03-23 22:30:00,36.5,29.7,29.90,SSW,212,0.0,2.0,76,0.00,,,0.00,Wunderground v.1.15,2013-03-24 02:30:00,
2013-03-23 22:40:00,36.3,28.8,29.90,SSW,212,0.0,2.0,74,0.00,,,0.00,Wunderground v.1.15,2013-03-24 02:40:00,
2013-03-23 22:45:00,36.3,28.8,29.90,SW,214,0.0,2.0,74,0.00,,,0.00,Wunderground v.1.15,2013-03-24 02:45:00,
2013-03-23 22:55:00,36.8,28.6,29.90,SW,215,0.0,2.0,72,0.00,,,0.00,Wunderground v.1.15,2013-03-24 02:55:00,
2013-03-23 23:05:00,36.5,28.7,29.90,ENE,69,0.0,2.0,73,0.00,,,0.00,Wunderground v.1.15,2013-03-24 03:05:00,
2013-03-23 23:10:00,36.8,28.3,29.90,WNW,294,0.0,2.0,71,0.00,,,0.00,Wunderground v.1.15,2013-03-24 03:10:00,
2013-03-23 23:20:00,36.9,26.6,29.89,WNW,285,0.0,2.0,66,0.00,,,0.00,Wunderground v.1.15,2013-03-24 03:20:00,
2013-03-23 23:30:00,37.3,27.7,29.88,WNW,284,0.0,2.0,68,0.00,,,0.00,Wunderground v.1.15,2013-03-24 03:30:00,
2013-03-23 23:35:00,37.2,27.2,29.87,ENE,67,0.0,3.0,67,0.00,,,0.00,Wunderground v.1.15,2013-03-24 03:35:00,
2013-03-23 23:45:00,38.3,27.6,29.86,West,278,0.0,2.0,65,0.00,,,0.00,Wunderground v.1.15,2013-03-24 03:45:00,
2013-03-23 23:55:00,38.9,27.0,29.87,NNE,29,0.0,2.0,62,0.00,,,0.00,Wunderground v.1.15,2013-03-24 03:55:00,